Gambell Airport
PAGM : now visible

Airfield :











YOU CAN JOIN US ON...

 
LOGIN :

Register | Disclaimer

   EN    FR    IT 

 









Legend :    VFR   Marginal VFR   IFR   Intensive IFR   Very Intensive IFR
Visi :
Ceiling :
>= 8 km
>= 3000ft
5 to 8 km
1000 to 3000 ft
1500m to 5 km
500 to 1000 ft
800 to 1500m
200 to 500 ft
< 800m
< 200 ft
Symbols :   Thunderstorms  Fog  Heavy snow  Heavy precipitations  Wind > 20 kt






- Airport Elevation : 27 ft
- IATA code : GAM


PAGM - Gambell

CURRENT METAR :
  • 241256Z AUTO 03009KT 10SM BKN016 OVC021 05/03 A2967 RMK AO2 SLP053 T00500028

EXPIRED METARs :
  • 241156Z AUTO 03008KT 10SM SCT015 BKN024 OVC031 05/03 A2967 RMK AO2 SLP052 60000 T00500028 10061 20050 51002
  • 241128Z AUTO 03011KT 10SM SCT015 BKN024 BKN038 06/03 A2967 RMK AO2
  • 241119Z AUTO 04009KT 10SM BKN013 BKN038 06/03 A2967 RMK AO2
  • 241056Z AUTO 05009KT 10SM FEW020 BKN036 06/03 A2967 RMK AO2 SLP052 T00560028
  • 241011Z AUTO 06011KT 10SM FEW013 BKN018 OVC070 06/03 A2967 RMK AO2
  • 240956Z AUTO 06011KT 10SM SCT013 BKN034 OVC075 06/03 A2966 RMK AO2 RAE09 SLP050 P0000 T00560028

TAF N/A
PAZA FIR / North America



MET'MAP, your aeronautical weather chart ! - Copyright ORBIFLY December 2007 - Disclaimer

ORBIFLY MET'MAP TEAM :

Programming & Development : Alexandra Zaïnal
Concept & original design : Baudouin d'Aumeries
Assistance for programming : Marc-Olivier Méhu
Technical & hardware support : Manuel Goepfert

Contact : metmap@orbifly.com




SOURCES & CREDITS :

   NOAA       Earth
Advisory